General Aviation Weather

Text Reports

Enter one or more of the following location identifiers separated by a space:

Zip Code, Four-Character ICAO or Three-Character IATA airport codes.

METAR - Aviation Routine Weather Report
PANI - Aniak, Alaska
Updated at 1:56 PM GMT on July 30, 2014 (5:56 AM AKDT):
METAR PANI 301356Z AUTO 34004KT 10SM CLR 13/08 A3020 RMK AO1
TAF - Terminal Area Forecast
PANI - Aniak, Alaska
Updated at 1:56 PM GMT on July 30, 2014 (5:56 AM AKDT):
No TAF is currently available for this location.
Decoded:
No decoded TAF is available.
PIREP - Pilot Weather Report
PANI - Aniak, Alaska
Updated at 1:56 PM GMT on July 30, 2014 (5:56 AM AKDT):
No PIREP is currently available for this location.
AIRMET - Airmens Meteorological Information
PANI - Aniak, Alaska
Updated at 1:56 PM GMT on July 30, 2014 (5:56 AM AKDT):
No AIRMET is currently available for this location.
SIGMET - Significant Meteorological Information
PANI - Aniak, Alaska
Updated at 1:56 PM GMT on July 30, 2014 (5:56 AM AKDT):
No SIGMET is currently available for this location.
NOTAM - Notice to Airmen
PANI - Aniak, Alaska
Updated at 1:56 PM GMT on July 30, 2014 (5:56 AM AKDT):
No NOTAM is currently available for this location.
Forecast Area
PANI - Aniak, Alaska
Updated at 1:56 PM GMT on July 30, 2014 (5:56 AM AKDT):
No NOTAM is currently available for this location.
Aviation Weather Maps